createdAt,value
2023-09-09T00:01:45.695Z,100309.59
2023-09-09T00:06:48.539Z,100305.81
2023-09-09T00:11:51.340Z,100301.97
2023-09-09T00:16:55.546Z,100298.22
2023-09-09T00:21:58.336Z,100299.94
2023-09-09T00:27:01.753Z,100307.91
2023-09-09T00:32:06.472Z,100307.78
2023-09-09T00:37:09.598Z,100304.03
2023-09-09T00:42:12.331Z,100301.44
2023-09-09T00:47:18.665Z,100307.00
2023-09-09T00:52:21.692Z,100304.16
2023-09-09T00:57:24.445Z,100300.06
2023-09-09T01:02:28.729Z,100308.88
2023-09-09T01:07:44.625Z,100308.66
2023-09-09T01:12:47.735Z,100298.50
2023-09-09T01:17:53.385Z,100294.88
2023-09-09T01:22:57.849Z,100293.63
2023-09-09T01:28:00.821Z,100293.53
2023-09-09T01:33:04.367Z,100307.69
2023-09-09T01:38:08.573Z,100304.34
2023-09-09T01:43:11.786Z,100291.63
2023-09-09T01:48:16.130Z,100294.06
2023-09-09T01:53:20.423Z,100300.78
2023-09-09T01:58:23.185Z,100299.59
2023-09-09T02:03:26.719Z,100289.50
2023-09-09T02:08:31.116Z,100294.25
2023-09-09T02:13:33.970Z,100299.28
2023-09-09T02:18:38.941Z,100302.28
2023-09-09T02:23:44.109Z,100304.72
2023-09-09T02:28:47.717Z,100297.41
2023-09-09T02:33:50.550Z,100295.84
2023-09-09T02:38:55.778Z,100305.88
2023-09-09T02:43:58.655Z,100303.59
2023-09-09T02:49:02.670Z,100309.31
2023-09-09T02:54:07.131Z,100311.59
2023-09-09T02:59:10.076Z,100305.19
2023-09-09T03:04:13.812Z,100305.47
2023-09-09T03:09:18.259Z,100305.31
2023-09-09T03:14:21.577Z,100306.91
2023-09-09T03:19:24.618Z,100299.91
2023-09-09T03:24:28.946Z,100308.34
2023-09-09T03:29:31.781Z,100315.19
2023-09-09T03:34:34.726Z,100314.38
2023-09-09T03:39:39.020Z,100319.31
2023-09-09T03:44:43.122Z,100311.44
2023-09-09T03:49:46.043Z,100312.72
2023-09-09T03:54:50.242Z,100312.72
2023-09-09T03:59:54.213Z,100310.00
2023-09-09T04:04:57.136Z,100313.41
2023-09-09T04:10:01.402Z,100320.13
2023-09-09T04:15:04.637Z,100302.84
2023-09-09T04:20:09.921Z,100310.69
2023-09-09T04:25:14.484Z,100307.38
2023-09-09T04:30:17.434Z,100314.94
2023-09-09T04:35:20.317Z,100310.75
2023-09-09T04:40:24.902Z,100310.88
2023-09-09T04:45:28.018Z,100316.22
2023-09-09T04:50:31.290Z,100313.09
2023-09-09T04:55:35.993Z,100322.66
2023-09-09T05:00:40.197Z,100324.25
2023-09-09T05:05:43.544Z,100320.53
2023-09-09T05:10:47.837Z,100317.13
2023-09-09T05:15:52.903Z,100328.84
2023-09-09T05:20:56.037Z,100333.66
2023-09-09T05:26:00.345Z,100324.81
2023-09-09T05:31:07.019Z,100329.50
2023-09-09T05:36:10.776Z,100336.78
2023-09-09T05:41:15.649Z,100331.09
2023-09-09T05:46:18.697Z,100335.69
2023-09-09T05:51:21.759Z,100337.94
2023-09-09T05:56:26.185Z,100339.91
2023-09-09T06:01:29.846Z,100342.22
2023-09-09T06:06:32.878Z,100350.09
2023-09-09T06:11:37.179Z,100351.66
2023-09-09T06:16:40.250Z,100356.25
2023-09-09T06:21:43.410Z,100351.09
2023-09-09T06:26:47.682Z,100347.78
2023-09-09T06:31:51.091Z,100354.94
2023-09-09T06:36:54.956Z,100351.78
2023-09-09T06:41:59.197Z,100359.06
2023-09-09T06:47:10.772Z,100360.69
2023-09-09T06:52:13.637Z,100365.41
2023-09-09T06:57:17.790Z,100362.00
2023-09-09T07:02:21.021Z,100359.69
2023-09-09T07:07:24.904Z,100353.59
2023-09-09T07:12:31.489Z,100363.75
2023-09-09T07:17:34.978Z,100364.03
2023-09-09T07:22:37.899Z,100369.78
2023-09-09T07:27:42.489Z,100368.28
2023-09-09T07:32:45.637Z,100366.59
2023-09-09T07:37:50.692Z,100362.50
2023-09-09T07:42:56.076Z,100362.03
2023-09-09T07:47:58.967Z,100358.75
2023-09-09T07:53:03.963Z,100355.66
2023-09-09T07:58:08.063Z,100354.47
2023-09-09T08:03:11.855Z,100353.88
2023-09-09T08:08:14.785Z,100349.50
2023-09-09T08:13:18.979Z,100350.69
2023-09-09T08:18:21.919Z,100349.06
2023-09-09T08:23:24.735Z,100349.81
2023-09-09T08:28:28.849Z,100348.25
2023-09-09T08:33:31.773Z,100354.69
2023-09-09T08:38:35.046Z,100346.56
2023-09-09T08:43:54.209Z,100344.75
2023-09-09T08:49:00.551Z,100343.19
2023-09-09T08:54:04.714Z,100349.78
2023-09-09T08:59:09.883Z,100345.97
2023-09-09T09:04:13.802Z,100345.09
2023-09-09T09:09:17.320Z,100344.50
2023-09-09T09:14:21.588Z,100344.97
2023-09-09T09:19:28.790Z,100332.66
2023-09-09T09:24:42.986Z,100336.66
2023-09-09T09:29:48.906Z,100329.63
2023-09-09T09:34:52.901Z,100319.03
2023-09-09T09:39:55.889Z,100316.31
2023-09-09T09:45:09.898Z,100321.31
2023-09-09T09:50:20.540Z,100314.31
2023-09-09T09:55:23.483Z,100312.72
2023-09-09T10:00:28.857Z,100305.13
2023-09-09T10:05:32.931Z,100303.53
2023-09-09T10:10:38.887Z,100302.50
2023-09-09T10:15:45.212Z,100294.00
2023-09-09T10:20:48.365Z,100299.44
2023-09-09T10:25:52.833Z,100299.69
2023-09-09T10:30:58.047Z,100287.94
2023-09-09T10:36:01.412Z,100290.94
2023-09-09T10:41:05.104Z,100292.06
2023-09-09T10:46:10.927Z,100287.47
2023-09-09T10:51:16.566Z,100288.44
2023-09-09T10:56:25.462Z,100280.81
2023-09-09T11:01:29.700Z,100286.47
2023-09-09T11:06:33.183Z,100277.72
2023-09-09T11:11:38.899Z,100280.44
2023-09-09T11:16:44.753Z,100270.19
2023-09-09T11:21:49.502Z,100270.56
2023-09-09T11:26:53.034Z,100268.44
2023-09-09T11:31:57.672Z,100275.13
2023-09-09T11:37:01.984Z,100269.53
2023-09-09T11:42:05.399Z,100267.22
2023-09-09T11:47:10.301Z,100260.91
2023-09-09T11:52:13.620Z,100263.47
2023-09-09T11:57:16.517Z,100261.34
2023-09-09T12:02:22.003Z,100255.13
2023-09-09T12:07:28.692Z,100256.94
2023-09-09T12:12:32.323Z,100253.28
2023-09-09T12:17:37.262Z,100244.69
2023-09-09T12:22:48.240Z,100238.53
2023-09-09T12:27:51.051Z,100228.56
2023-09-09T12:32:55.417Z,100239.38
2023-09-09T12:37:59.275Z,100230.72
2023-09-09T12:43:11.184Z,100227.25
2023-09-09T12:48:16.110Z,100224.34
2023-09-09T12:53:18.954Z,100228.06
2023-09-09T12:58:21.895Z,100231.50
2023-09-09T13:03:26.215Z,100230.91
2023-09-09T13:08:31.716Z,100237.09
2023-09-09T13:13:39.704Z,100226.22
2023-09-09T13:18:44.863Z,100233.00
2023-09-09T13:23:47.692Z,100221.19
2023-09-09T13:28:50.644Z,100222.94
2023-09-09T13:33:55.014Z,100223.97
2023-09-09T13:38:57.802Z,100217.50
2023-09-09T13:44:00.744Z,100219.38
2023-09-09T13:49:05.341Z,100220.28
2023-09-09T13:54:08.378Z,100223.88
2023-09-09T13:59:11.378Z,100204.75
2023-09-09T14:04:15.746Z,100208.84
2023-09-09T14:09:18.578Z,100199.97
2023-09-09T14:14:21.362Z,100192.47
2023-09-09T14:19:25.602Z,100190.22
2023-09-09T14:24:28.393Z,100190.56
2023-09-09T14:29:31.220Z,100190.72
2023-09-09T14:34:35.389Z,100184.75
2023-09-09T14:39:38.220Z,100186.31
2023-09-09T14:44:41.489Z,100182.00
2023-09-09T14:49:45.663Z,100173.28
2023-09-09T14:54:48.619Z,100177.41
2023-09-09T14:59:51.563Z,100169.84
2023-09-09T15:04:55.846Z,100174.94
2023-09-09T15:09:58.904Z,100171.53
2023-09-09T15:15:01.802Z,100173.56
2023-09-09T15:20:07.238Z,100174.44
2023-09-09T15:25:10.438Z,100170.47
2023-09-09T15:30:14.360Z,100173.41
2023-09-09T15:35:18.560Z,100167.25
2023-09-09T15:40:21.609Z,100170.16
2023-09-09T15:45:24.445Z,100166.88
2023-09-09T15:50:29.063Z,100160.91
2023-09-09T15:55:31.973Z,100163.81
2023-09-09T16:00:34.841Z,100162.63
2023-09-09T16:05:39.131Z,100161.59
2023-09-09T16:10:41.999Z,100160.22
2023-09-09T16:15:44.948Z,100154.63
2023-09-09T16:20:49.038Z,100156.13
2023-09-09T16:25:54.088Z,100160.03
2023-09-09T16:30:56.934Z,100155.75
2023-09-09T16:36:03.740Z,100161.06
2023-09-09T16:41:06.816Z,100160.69
2023-09-09T16:46:09.770Z,100167.22
2023-09-09T16:51:14.002Z,100164.81
2023-09-09T16:56:16.877Z,100169.94
2023-09-09T17:01:19.868Z,100170.66
2023-09-09T17:06:24.123Z,100175.75
2023-09-09T17:11:27.013Z,100170.00
2023-09-09T17:16:29.966Z,100182.78
2023-09-09T17:21:34.633Z,100184.19
2023-09-09T17:26:37.580Z,100188.97
2023-09-09T17:31:40.552Z,100182.81
2023-09-09T17:36:45.296Z,100186.78
2023-09-09T17:41:48.187Z,100192.59
2023-09-09T17:46:51.978Z,100195.34
2023-09-09T17:51:56.623Z,100191.78
2023-09-09T17:56:59.433Z,100189.53
2023-09-09T18:02:02.335Z,100205.59
2023-09-09T18:07:07.347Z,100200.97
2023-09-09T18:12:10.445Z,100200.31
2023-09-09T18:17:13.586Z,100206.59
2023-09-09T18:22:17.770Z,100199.94
2023-09-09T18:27:20.640Z,100206.97
2023-09-09T18:32:23.608Z,100209.53
2023-09-09T18:37:27.991Z,100208.69
2023-09-09T18:42:30.942Z,100209.69
2023-09-09T18:47:33.912Z,100210.56
2023-09-09T18:52:38.201Z,100211.06
2023-09-09T18:57:41.043Z,100211.59
2023-09-09T19:02:44.021Z,100221.03
2023-09-09T19:07:48.464Z,100222.19
2023-09-09T19:12:51.627Z,100225.28
2023-09-09T19:17:54.561Z,100224.56
2023-09-09T19:22:58.703Z,100221.69
2023-09-09T19:28:01.620Z,100228.16
2023-09-09T19:33:05.352Z,100230.03
2023-09-09T19:38:09.808Z,100235.53
2023-09-09T19:43:12.671Z,100233.13
2023-09-09T19:48:15.702Z,100235.34
2023-09-09T19:53:19.927Z,100233.13
2023-09-09T19:58:22.985Z,100243.72
2023-09-09T20:03:25.958Z,100230.56
2023-09-09T20:08:30.186Z,100248.81
2023-09-09T20:13:33.098Z,100253.28
2023-09-09T20:18:36.649Z,100244.75
2023-09-09T20:23:41.178Z,100254.13
2023-09-09T20:28:44.219Z,100244.22
2023-09-09T20:33:47.034Z,100247.28
2023-09-09T20:38:51.386Z,100251.06
2023-09-09T20:43:54.212Z,100258.56
2023-09-09T20:48:57.110Z,100257.91
2023-09-09T20:54:02.138Z,100256.19
2023-09-09T20:59:07.093Z,100253.47
2023-09-09T21:04:10.004Z,100255.00
2023-09-09T21:09:14.387Z,100262.34
2023-09-09T21:14:17.154Z,100264.91
2023-09-09T21:19:19.994Z,100248.50
2023-09-09T21:24:24.270Z,100258.75
2023-09-09T21:29:27.085Z,100258.75
2023-09-09T21:34:29.925Z,100253.44
2023-09-09T21:39:34.067Z,100254.47
2023-09-09T21:44:37.054Z,100248.69
2023-09-09T21:49:39.965Z,100249.50
2023-09-09T21:54:44.261Z,100252.25
2023-09-09T21:59:47.037Z,100245.06
2023-09-09T22:04:49.820Z,100243.19
2023-09-09T22:09:54.196Z,100238.75
2023-09-09T22:14:57.470Z,100245.41
2023-09-09T22:20:01.258Z,100242.84
2023-09-09T22:25:07.516Z,100242.00
2023-09-09T22:30:11.346Z,100244.88
2023-09-09T22:35:14.518Z,100240.78
2023-09-09T22:40:18.869Z,100234.28
2023-09-09T22:45:21.779Z,100242.81
2023-09-09T22:50:24.571Z,100239.38
2023-09-09T22:55:28.740Z,100242.78
2023-09-09T23:00:31.625Z,100235.59
2023-09-09T23:05:34.383Z,100241.75
2023-09-09T23:10:38.589Z,100242.19
2023-09-09T23:15:41.693Z,100246.06
2023-09-09T23:20:44.968Z,100247.34
2023-09-09T23:25:53.592Z,100251.88
2023-09-09T23:31:00.280Z,100252.94
2023-09-09T23:36:03.592Z,100248.50
2023-09-09T23:41:07.837Z,100241.81
2023-09-09T23:46:10.761Z,100246.44
2023-09-09T23:51:13.721Z,100239.09
2023-09-09T23:56:17.979Z,100230.94
